createdAt,value
2018-12-24T00:02:35.146Z,-74
2018-12-24T00:05:22.474Z,-76
2018-12-24T00:08:02.728Z,-73
2018-12-24T00:10:49.976Z,-73
2018-12-24T00:13:30.334Z,-74
2018-12-24T00:16:18.298Z,-73
2018-12-24T00:18:58.392Z,-74
2018-12-24T00:21:45.698Z,-73
2018-12-24T00:27:38.959Z,-74
2018-12-24T00:30:26.432Z,-75
2018-12-24T00:33:44.796Z,-73
2018-12-24T00:36:25.678Z,-73
2018-12-24T00:39:13.782Z,-74
2018-12-24T00:42:38.721Z,-74
2018-12-24T00:48:32.976Z,-74
2018-12-24T00:51:20.327Z,-72
2018-12-24T00:54:00.377Z,-75
2018-12-24T00:56:47.636Z,-73
2018-12-24T00:59:28.470Z,-72
2018-12-24T01:02:15.792Z,-73
2018-12-24T01:04:56.422Z,-73
2018-12-24T01:07:43.684Z,-73
2018-12-24T01:10:23.988Z,-72
2018-12-24T01:13:11.602Z,-73
2018-12-24T01:15:52.095Z,-73
2018-12-24T01:18:39.340Z,-73
2018-12-24T01:21:19.372Z,-73
2018-12-24T01:24:06.618Z,-73
2018-12-24T01:26:46.593Z,-73
2018-12-24T01:29:33.817Z,-72
2018-12-24T01:32:14.072Z,-72
2018-12-24T01:35:01.328Z,-75
2018-12-24T01:37:42.162Z,-73
2018-12-24T01:40:29.426Z,-73
2018-12-24T01:43:10.022Z,-73
2018-12-24T01:45:57.694Z,-73
2018-12-24T01:48:38.206Z,-73
2018-12-24T01:51:25.478Z,-73
2018-12-24T01:54:05.753Z,-73
2018-12-24T01:56:53.257Z,-73
2018-12-24T01:59:33.400Z,-70
2018-12-24T02:02:20.794Z,-72
2018-12-24T02:05:00.846Z,-70
2018-12-24T02:07:48.125Z,-70
2018-12-24T02:10:28.124Z,-69
2018-12-24T02:13:15.402Z,-71
2018-12-24T02:15:56.142Z,-70
2018-12-24T02:19:01.710Z,-69
2018-12-24T02:21:42.326Z,-71
2018-12-24T02:24:29.800Z,-69
2018-12-24T02:27:10.581Z,-72
2018-12-24T02:33:24.150Z,-71
2018-12-24T02:36:11.415Z,-69
2018-12-24T02:38:58.862Z,-69
2018-12-24T02:41:45.664Z,-70
2018-12-24T02:44:29.963Z,-70
2018-12-24T02:47:17.404Z,-70
2018-12-24T02:49:58.102Z,-70
2018-12-24T02:52:45.592Z,-69
2018-12-24T02:55:26.062Z,-70
2018-12-24T02:58:13.352Z,-70
2018-12-24T03:04:28.623Z,-70
2018-12-24T03:10:21.605Z,-69
2018-12-24T03:13:09.099Z,-70
2018-12-24T03:15:49.483Z,-70
2018-12-24T03:18:37.220Z,-70
2018-12-24T03:21:17.778Z,-69
2018-12-24T03:24:05.262Z,-68
2018-12-24T03:26:45.720Z,-70
2018-12-24T03:29:33.172Z,-70
2018-12-24T03:32:13.802Z,-69
2018-12-24T03:35:01.073Z,-71
2018-12-24T03:37:41.819Z,-69
2018-12-24T03:40:29.061Z,-70
2018-12-24T03:43:16.540Z,-71
2018-12-24T03:46:03.970Z,-70
2018-12-24T03:48:44.060Z,-70
2018-12-24T03:51:31.700Z,-70
2018-12-24T03:54:12.664Z,-70
2018-12-24T03:57:17.758Z,-69
2018-12-24T03:59:58.456Z,-68
2018-12-24T04:02:45.887Z,-69
2018-12-24T04:05:24.297Z,-70
2018-12-24T04:08:11.510Z,-71
2018-12-24T04:10:52.004Z,-70
2018-12-24T04:13:39.282Z,-70
2018-12-24T04:16:17.962Z,-69
2018-12-24T04:19:05.240Z,-71
2018-12-24T04:21:45.298Z,-69
2018-12-24T04:24:32.728Z,-69
2018-12-24T04:27:11.136Z,-70
2018-12-24T04:29:51.756Z,-70
2018-12-24T04:32:39.024Z,-70
2018-12-24T04:35:19.351Z,-71
2018-12-24T04:38:06.600Z,-70
2018-12-24T04:40:47.747Z,-70
2018-12-24T04:44:11.415Z,-70
2018-12-24T04:46:51.493Z,-70
2018-12-24T04:49:38.759Z,-71
2018-12-24T04:52:18.666Z,-69
2018-12-24T04:55:08.206Z,-70
2018-12-24T04:57:48.687Z,-70
2018-12-24T05:01:19.929Z,-70
2018-12-24T05:04:07.223Z,-70
2018-12-24T05:06:47.825Z,-72
2018-12-24T05:09:35.441Z,-70
2018-12-24T05:12:15.820Z,-70
2018-12-24T05:15:03.173Z,-70
2018-12-24T05:17:47.812Z,-71
2018-12-24T05:20:35.046Z,-71
2018-12-24T05:23:17.305Z,-69
2018-12-24T05:26:04.739Z,-69
2018-12-24T05:28:44.652Z,-70
2018-12-24T05:31:31.955Z,-70
2018-12-24T05:34:12.773Z,-70
2018-12-24T05:40:28.536Z,-70
2018-12-24T05:46:20.354Z,-69
2018-12-24T05:49:07.614Z,-69
2018-12-24T05:51:48.693Z,-69
2018-12-24T05:57:24.835Z,-70
2018-12-24T06:00:58.469Z,-70
2018-12-24T06:03:46.249Z,-69
2018-12-24T06:12:51.087Z,-72
2018-12-24T06:15:40.647Z,-70
2018-12-24T06:18:20.979Z,-70
2018-12-24T06:21:08.603Z,-71
2018-12-24T06:24:15.002Z,-71
2018-12-24T06:30:06.132Z,-69
2018-12-24T06:32:53.401Z,-71
2018-12-24T06:35:40.664Z,-71
2018-12-24T06:38:28.353Z,-70
2018-12-24T06:41:08.962Z,-71
2018-12-24T06:43:56.246Z,-70
2018-12-24T06:46:36.870Z,-72
2018-12-24T06:49:24.301Z,-70
2018-12-24T06:52:04.590Z,-71
2018-12-24T06:54:51.840Z,-71
2018-12-24T06:57:40.393Z,-71
2018-12-24T07:00:22.367Z,-74
2018-12-24T07:03:09.900Z,-74
2018-12-24T07:05:53.039Z,-74
2018-12-24T07:08:34.328Z,-73
2018-12-24T07:11:15.197Z,-74
2018-12-24T07:14:02.449Z,-73
2018-12-24T07:16:43.344Z,-76
2018-12-24T07:19:30.610Z,-73
2018-12-24T07:22:12.160Z,-76
2018-12-24T07:24:59.447Z,-73
2018-12-24T07:27:39.949Z,-76
2018-12-24T07:33:20.827Z,-75
2018-12-24T07:36:00.879Z,-77
2018-12-24T07:38:48.149Z,-76
2018-12-24T07:41:28.023Z,-73
2018-12-24T07:44:23.944Z,-74
2018-12-24T07:46:58.369Z,-74
2018-12-24T07:49:45.585Z,-73
2018-12-24T07:52:26.119Z,-74
2018-12-24T07:55:13.613Z,-73
2018-12-24T07:57:54.303Z,-73
2018-12-24T08:00:41.809Z,-74
2018-12-24T08:03:25.432Z,-74
2018-12-24T08:06:12.709Z,-74
2018-12-24T08:08:53.473Z,-75
2018-12-24T08:11:37.025Z,-74
2018-12-24T08:14:32.765Z,-73
2018-12-24T08:17:07.329Z,-75
2018-12-24T08:19:54.766Z,-74
2018-12-24T08:22:35.264Z,-73
2018-12-24T08:25:22.737Z,-73
2018-12-24T08:28:10.207Z,-73
2018-12-24T08:30:57.454Z,-74
2018-12-24T08:33:37.460Z,-74
2018-12-24T08:36:24.887Z,-75
2018-12-24T08:39:05.763Z,-74
2018-12-24T08:41:53.204Z,-75
2018-12-24T08:44:41.548Z,-73
2018-12-24T08:47:23.581Z,-74
2018-12-24T08:50:11.367Z,-74
2018-12-24T08:55:40.825Z,-75
2018-12-24T08:58:28.097Z,-73
2018-12-24T09:01:09.294Z,-74
2018-12-24T09:03:56.500Z,-75
2018-12-24T09:06:36.948Z,-74
2018-12-24T09:09:24.154Z,-74
2018-12-24T09:12:05.057Z,-76
2018-12-24T09:14:55.476Z,-75
2018-12-24T09:17:36.642Z,-74
2018-12-24T09:20:23.991Z,-73
2018-12-24T09:23:11.217Z,-73
2018-12-24T09:25:58.867Z,-74
2018-12-24T09:28:39.800Z,-73
2018-12-24T09:31:27.282Z,-73
2018-12-24T09:34:07.738Z,-73
2018-12-24T09:40:44.163Z,-73
2018-12-24T09:46:42.623Z,-74
2018-12-24T09:49:23.363Z,-74
2018-12-24T09:52:10.613Z,-72
2018-12-24T09:54:50.533Z,-74
2018-12-24T09:57:37.820Z,-74
2018-12-24T10:00:18.641Z,-73
2018-12-24T10:03:30.610Z,-73
2018-12-24T10:06:12.822Z,-74
2018-12-24T10:11:57.164Z,-73
2018-12-24T10:14:44.595Z,-73
2018-12-24T10:17:32.052Z,-77
2018-12-24T10:20:12.375Z,-74
2018-12-24T10:23:00.630Z,-72
2018-12-24T10:25:41.638Z,-74
2018-12-24T10:28:28.889Z,-74
2018-12-24T10:31:10.118Z,-74
2018-12-24T10:33:57.506Z,-73
2018-12-24T10:39:34.020Z,-73
2018-12-24T10:51:52.842Z,-74
2018-12-24T10:54:40.349Z,-74
2018-12-24T10:57:20.775Z,-72
2018-12-24T11:00:09.719Z,-73
2018-12-24T11:02:50.736Z,-76
2018-12-24T11:05:37.968Z,-75
2018-12-24T11:08:18.522Z,-74
2018-12-24T11:10:58.979Z,-73
2018-12-24T11:13:46.274Z,-74
2018-12-24T11:16:33.505Z,-74
2018-12-24T11:19:14.415Z,-74
2018-12-24T11:22:13.903Z,-73
2018-12-24T11:24:44.287Z,-75
2018-12-24T11:27:31.731Z,-75
2018-12-24T11:30:12.077Z,-75
2018-12-24T11:32:59.329Z,-74
2018-12-24T11:35:46.822Z,-75
2018-12-24T11:38:34.491Z,-73
2018-12-24T11:41:15.137Z,-75
2018-12-24T11:44:02.974Z,-74
2018-12-24T11:46:43.160Z,-74
2018-12-24T11:49:32.656Z,-74
2018-12-24T11:52:12.327Z,-74
2018-12-24T11:55:00.160Z,-73
2018-12-24T11:57:40.682Z,-75
2018-12-24T12:00:27.953Z,-72
2018-12-24T12:03:15.402Z,-73
2018-12-24T12:06:02.612Z,-72
2018-12-24T12:08:43.060Z,-74
2018-12-24T12:11:23.999Z,-73
2018-12-24T12:14:11.247Z,-74
2018-12-24T12:16:51.921Z,-73
2018-12-24T12:19:39.167Z,-73
2018-12-24T12:22:21.541Z,-74
2018-12-24T12:25:51.113Z,-74
2018-12-24T12:28:31.314Z,-73
2018-12-24T12:31:18.537Z,-74
2018-12-24T12:33:59.839Z,-74
2018-12-24T12:36:40.509Z,-73
2018-12-24T12:40:14.374Z,-74
2018-12-24T12:43:01.832Z,-73
2018-12-24T12:45:42.106Z,-74
2018-12-24T12:48:29.375Z,-74
2018-12-24T12:51:10.334Z,-74
2018-12-24T12:54:35.611Z,-74
2018-12-24T12:57:16.308Z,-74
2018-12-24T12:59:58.190Z,-76
2018-12-24T13:02:45.916Z,-71
2018-12-24T13:05:26.304Z,-73
2018-12-24T13:08:15.985Z,-71
2018-12-24T13:10:56.466Z,-71
2018-12-24T13:13:43.722Z,-71
2018-12-24T13:16:24.502Z,-72
2018-12-24T13:19:11.775Z,-70
2018-12-24T13:21:52.271Z,-71
2018-12-24T13:24:39.550Z,-70
2018-12-24T13:27:21.143Z,-71
2018-12-24T13:30:08.624Z,-71
2018-12-24T13:32:48.780Z,-71
2018-12-24T13:35:36.047Z,-70
2018-12-24T13:38:42.906Z,-71
2018-12-24T13:41:27.072Z,-69
2018-12-24T13:44:14.497Z,-71
2018-12-24T13:46:55.197Z,-70
2018-12-24T13:49:42.766Z,-71
2018-12-24T13:55:34.438Z,-70
2018-12-24T13:58:21.893Z,-72
2018-12-24T14:04:26.461Z,-71
2018-12-24T14:07:13.905Z,-71
2018-12-24T14:09:53.743Z,-72
2018-12-24T14:18:56.327Z,-70
2018-12-24T14:25:31.128Z,-71
2018-12-24T14:28:11.400Z,-71
2018-12-24T14:30:58.636Z,-71
2018-12-24T14:33:37.232Z,-70
2018-12-24T14:36:24.713Z,-71
2018-12-24T14:39:05.628Z,-71
2018-12-24T14:41:52.872Z,-74
2018-12-24T14:44:34.064Z,-74
2018-12-24T14:47:21.532Z,-73
2018-12-24T14:50:02.072Z,-74
2018-12-24T14:52:49.521Z,-73
2018-12-24T14:55:30.291Z,-75
2018-12-24T14:59:05.239Z,-74
2018-12-24T15:01:52.829Z,-75
2018-12-24T15:04:33.081Z,-74
2018-12-24T15:07:20.326Z,-76
2018-12-24T15:10:01.154Z,-75
2018-12-24T15:12:41.446Z,-76
2018-12-24T15:15:28.891Z,-76
2018-12-24T15:18:16.164Z,-75
2018-12-24T15:21:03.433Z,-74
2018-12-24T15:23:43.655Z,-70
2018-12-24T15:26:30.919Z,-70
2018-12-24T15:29:17.858Z,-70
2018-12-24T15:35:24.319Z,-70
2018-12-24T15:38:11.565Z,-71
2018-12-24T15:40:53.291Z,-70
2018-12-24T15:43:40.553Z,-71
2018-12-24T15:46:20.477Z,-71
2018-12-24T15:49:08.119Z,-69
2018-12-24T15:51:46.720Z,-72
2018-12-24T15:54:34.219Z,-70
2018-12-24T15:57:15.231Z,-70
2018-12-24T16:00:03.219Z,-71
2018-12-24T16:02:43.406Z,-71
2018-12-24T16:05:30.648Z,-71
2018-12-24T16:08:10.569Z,-71
2018-12-24T16:10:50.783Z,-71
2018-12-24T16:13:56.210Z,-71
2018-12-24T16:16:36.098Z,-71
2018-12-24T16:19:23.532Z,-74
2018-12-24T16:22:04.278Z,-73
2018-12-24T16:24:51.885Z,-74
2018-12-24T16:30:48.804Z,-74
2018-12-24T16:37:13.829Z,-75
2018-12-24T16:39:54.244Z,-75
2018-12-24T16:42:41.475Z,-73
2018-12-24T16:45:20.516Z,-74
2018-12-24T16:48:08.002Z,-73
2018-12-24T16:50:47.956Z,-73
2018-12-24T16:53:40.404Z,-73
2018-12-24T16:56:17.288Z,-73
2018-12-24T16:59:04.546Z,-73
2018-12-24T17:01:45.607Z,-74
2018-12-24T17:04:33.058Z,-74
2018-12-24T17:07:13.990Z,-73
2018-12-24T17:10:01.410Z,-76
2018-12-24T17:12:42.328Z,-74
2018-12-24T17:15:29.678Z,-73
2018-12-24T17:18:09.892Z,-75
2018-12-24T17:20:57.162Z,-74
2018-12-24T17:23:37.846Z,-73
2018-12-24T17:26:25.070Z,-74
2018-12-24T17:29:05.533Z,-73
2018-12-24T17:32:10.929Z,-74
2018-12-24T17:34:51.596Z,-73
2018-12-24T17:37:38.833Z,-76
2018-12-24T17:40:20.982Z,-74
2018-12-24T17:43:08.190Z,-74
2018-12-24T17:45:48.753Z,-76
2018-12-24T17:48:36.240Z,-74
2018-12-24T17:51:16.789Z,-73
2018-12-24T17:54:04.049Z,-74
2018-12-24T17:56:44.369Z,-74
2018-12-24T17:59:31.780Z,-74
2018-12-24T18:02:11.809Z,-74
2018-12-24T18:05:01.773Z,-74
2018-12-24T18:11:09.867Z,-73
2018-12-24T18:13:57.108Z,-74
2018-12-24T18:16:38.410Z,-73
2018-12-24T18:19:25.639Z,-73
2018-12-24T18:22:05.546Z,-74
2018-12-24T18:25:49.936Z,-73
2018-12-24T18:28:29.901Z,-73
2018-12-24T18:31:35.408Z,-74
2018-12-24T18:34:16.168Z,-75
2018-12-24T18:37:03.891Z,-74
2018-12-24T18:39:44.881Z,-74
2018-12-24T18:42:32.471Z,-74
2018-12-24T18:45:13.141Z,-74
2018-12-24T18:48:00.358Z,-74
2018-12-24T18:50:41.203Z,-73
2018-12-24T18:53:29.189Z,-75
2018-12-24T18:56:09.698Z,-73
2018-12-24T18:58:56.955Z,-73
2018-12-24T19:01:37.610Z,-74
2018-12-24T19:04:24.844Z,-73
2018-12-24T19:07:05.009Z,-74
2018-12-24T19:09:52.450Z,-73
2018-12-24T19:12:33.323Z,-74
2018-12-24T19:15:20.951Z,-74
2018-12-24T19:18:08.526Z,-73
2018-12-24T19:20:48.549Z,-73
2018-12-24T19:23:35.970Z,-75
2018-12-24T19:26:17.824Z,-73
2018-12-24T19:29:05.076Z,-74
2018-12-24T19:31:45.247Z,-74
2018-12-24T19:34:32.469Z,-74
2018-12-24T19:37:13.187Z,-74
2018-12-24T19:40:00.821Z,-74
2018-12-24T19:42:43.578Z,-74
2018-12-24T19:45:24.468Z,-74
2018-12-24T19:48:11.746Z,-74
2018-12-24T19:50:51.784Z,-74
2018-12-24T19:53:39.066Z,-73
2018-12-24T19:56:19.598Z,-74
2018-12-24T19:59:07.011Z,-74
2018-12-24T20:01:47.969Z,-73
2018-12-24T20:04:35.251Z,-74
2018-12-24T20:07:15.580Z,-74
2018-12-24T20:10:03.891Z,-73
2018-12-24T20:12:45.164Z,-74
2018-12-24T20:19:04.377Z,-76
2018-12-24T20:21:51.833Z,-75
2018-12-24T20:30:47.527Z,-74
2018-12-24T20:33:34.777Z,-75
2018-12-24T20:36:15.650Z,-74
2018-12-24T20:39:24.370Z,-74
2018-12-24T20:42:04.384Z,-74
2018-12-24T20:44:51.650Z,-75
2018-12-24T20:47:33.024Z,-74
2018-12-24T20:50:20.980Z,-75
2018-12-24T20:53:08.428Z,-74
2018-12-24T20:55:48.543Z,-75
2018-12-24T20:58:35.989Z,-74
2018-12-24T21:01:17.013Z,-74
2018-12-24T21:04:05.053Z,-76
2018-12-24T21:06:45.608Z,-74
2018-12-24T21:09:32.857Z,-74
2018-12-24T21:12:13.588Z,-75
2018-12-24T21:15:01.003Z,-75
2018-12-24T21:17:41.904Z,-75
2018-12-24T21:20:29.546Z,-74
2018-12-24T21:23:09.594Z,-75
2018-12-24T21:25:56.841Z,-74
2018-12-24T21:28:36.892Z,-74
2018-12-24T21:31:24.341Z,-74
2018-12-24T21:34:05.371Z,-75
2018-12-24T21:36:52.578Z,-74
2018-12-24T21:39:33.019Z,-74
2018-12-24T21:42:20.437Z,-74
2018-12-24T21:45:01.147Z,-75
2018-12-24T21:47:48.666Z,-74
2018-12-24T21:50:28.949Z,-73
2018-12-24T21:53:16.389Z,-73
2018-12-24T21:55:56.912Z,-74
2018-12-24T21:58:44.189Z,-73
2018-12-24T22:01:25.031Z,-76
2018-12-24T22:04:12.717Z,-73
2018-12-24T22:06:52.687Z,-73
2018-12-24T22:09:39.931Z,-74
2018-12-24T22:12:20.907Z,-75
2018-12-24T22:14:48.679Z,-74
2018-12-24T22:17:16.459Z,-74
2018-12-24T22:19:44.436Z,-74
2018-12-24T22:22:12.257Z,-75
2018-12-24T22:24:42.312Z,-73
2018-12-24T22:27:10.122Z,-69
2018-12-24T22:29:37.851Z,-71
2018-12-24T22:32:08.757Z,-71
2018-12-24T22:34:36.657Z,-73
2018-12-24T22:37:04.646Z,-71
2018-12-24T22:39:32.437Z,-71
2018-12-24T22:42:00.468Z,-74
2018-12-24T22:44:28.383Z,-74
2018-12-24T22:46:56.235Z,-75
2018-12-24T22:49:23.982Z,-72
2018-12-24T22:51:53.483Z,-71
2018-12-24T22:54:21.322Z,-71
2018-12-24T22:56:49.429Z,-71
2018-12-24T22:59:20.279Z,-71
2018-12-24T23:01:48.158Z,-74
2018-12-24T23:04:15.941Z,-74
2018-12-24T23:06:43.910Z,-73
2018-12-24T23:09:11.775Z,-75
2018-12-24T23:11:39.759Z,-75
2018-12-24T23:14:07.599Z,-75
2018-12-24T23:16:35.517Z,-73
2018-12-24T23:19:03.314Z,-75
2018-12-24T23:21:31.100Z,-73
2018-12-24T23:23:59.168Z,-74
2018-12-24T23:26:26.901Z,-74
2018-12-24T23:28:54.690Z,-73
2018-12-24T23:31:22.664Z,-74
2018-12-24T23:33:50.448Z,-73
2018-12-24T23:36:18.789Z,-74
2018-12-24T23:38:46.600Z,-73
2018-12-24T23:41:16.660Z,-74
2018-12-24T23:43:44.441Z,-73
2018-12-24T23:46:12.373Z,-73
2018-12-24T23:48:41.239Z,-74
2018-12-24T23:51:09.016Z,-71
2018-12-24T23:53:36.797Z,-70
2018-12-24T23:56:04.781Z,-71
2018-12-24T23:58:32.578Z,-71
